This is the latest recevied weather packets stored in our database for station/object IN3APK-3. If no packets are shown the sender has not sent any weather packets the latest 10 day(s).
| Time | Temp. | Humidity | Pressure | Rain* | Wind** | Luminosity | Snow |
|---|---|---|---|---|---|---|---|
| 1777675226 | 7.22° C | 42% | 1021.1 hPa | - | - | - | - |
| 1777674574 | 7.22° C | 42% | 1021 hPa | - | - | - | - |
| 1777673922 | 7.22° C | 41% | 1020.9 hPa | - | - | - | - |
| 1777673270 | 7.78° C | 41% | 1020.8 hPa | - | - | - | - |
| 1777672617 | 7.78° C | 41% | 1020.8 hPa | - | - | - | - |
| 1777671965 | 7.78° C | 41% | 1020.7 hPa | - | - | - | - |
| 1777671312 | 8.33° C | 40% | 1020.5 hPa | - | - | - | - |
| 1777670660 | 8.33° C | 40% | 1020.4 hPa | - | - | - | - |
| 1777670008 | 8.33° C | 40% | 1020.5 hPa | - | - | - | - |
| 1777669355 | 8.89° C | 39% | 1020.3 hPa | - | - | - | - |
| 1777668703 | 8.89° C | 39% | 1020.3 hPa | - | - | - | - |
| 1777668051 | 9.44° C | 39% | 1020.2 hPa | - | - | - | - |
| 1777667399 | 9.44° C | 38% | 1020.1 hPa | - | - | - | - |
| 1777666746 | 9.44° C | 38% | 1020.1 hPa | - | - | - | - |
| 1777666095 | 10° C | 37% | 1019.9 hPa | - | - | - | - |
| 1777665442 | 10° C | 37% | 1019.8 hPa | - | - | - | - |
| 1777664790 | 10.56° C | 37% | 1019.8 hPa | - | - | - | - |
| 1777664139 | 11.11° C | 36% | 1019.5 hPa | - | - | - | - |
| 1777663487 | 11.11° C | 36% | 1019.3 hPa | - | - | - | - |
| 1777662184 | 12.22° C | 35% | 1019.1 hPa | - | - | - | - |
| 1777661532 | 12.78° C | 34% | 1018.9 hPa | - | - | - | - |
| 1777660881 | 13.89° C | 33% | 1018.6 hPa | - | - | - | - |
| 1777660229 | 15° C | 33% | 1018.5 hPa | - | - | - | - |
| 1777659577 | 16.11° C | 32% | 1018.2 hPa | - | - | - | - |
| 1777658926 | 17.78° C | 31% | 1018 hPa | - | - | - | - |
* Rain since midnight (hover to see other rain measurements)
** Current wind speed in m/s (hover to see current wind gust speed)